createdAt,value
2017-08-02T00:00:43.860Z,98510.30
2017-08-02T00:03:12.185Z,98510.50
2017-08-02T00:05:40.512Z,98513.61
2017-08-02T00:08:08.864Z,98509.18
2017-08-02T00:10:37.191Z,98510.26
2017-08-02T00:13:05.925Z,98517.66
2017-08-02T00:15:35.027Z,98520.55
2017-08-02T00:18:03.379Z,98516.38
2017-08-02T00:20:31.767Z,98514.04
2017-08-02T00:23:00.111Z,98519.23
2017-08-02T00:25:28.481Z,98522.80
2017-08-02T00:27:56.820Z,98519.94
2017-08-02T00:30:25.199Z,98522.17
2017-08-02T00:32:53.610Z,98524.48
2017-08-02T00:35:21.948Z,98518.17
2017-08-02T00:37:51.278Z,98524.44
2017-08-02T00:40:19.661Z,98526.72
2017-08-02T00:42:47.989Z,98519.92
2017-08-02T00:45:16.347Z,98521.29
2017-08-02T00:47:44.703Z,98517.47
2017-08-02T00:50:13.024Z,98520.81
2017-08-02T00:52:41.896Z,98517.80
2017-08-02T00:55:10.233Z,98511.87
2017-08-02T00:57:38.838Z,98504.27
2017-08-02T01:00:07.170Z,98494.84
2017-08-02T01:02:36.058Z,98502.17
2017-08-02T01:05:04.408Z,98503.77
2017-08-02T01:07:32.723Z,98503.55
2017-08-02T01:10:01.890Z,98509.59
2017-08-02T01:12:30.203Z,98506.87
2017-08-02T01:14:58.556Z,98508.72
2017-08-02T01:17:26.909Z,98502.95
2017-08-02T01:19:55.234Z,98506.16
2017-08-02T01:22:23.585Z,98499.73
2017-08-02T01:24:51.924Z,98504.44
2017-08-02T01:27:20.411Z,98511.74
2017-08-02T01:29:48.760Z,98510.05
2017-08-02T01:32:17.856Z,98509.17
2017-08-02T01:34:46.574Z,98508.39
2017-08-02T01:37:14.908Z,98512.13
2017-08-02T01:39:43.311Z,98513.14
2017-08-02T01:42:11.668Z,98500.42
2017-08-02T01:44:40.002Z,98499.55
2017-08-02T01:47:08.756Z,98498.41
2017-08-02T01:49:37.092Z,98498.41
2017-08-02T01:52:05.497Z,98497.63
2017-08-02T01:54:33.836Z,98497.14
2017-08-02T01:57:02.180Z,98506.24
2017-08-02T01:59:30.551Z,98502.05
2017-08-02T02:01:59.634Z,98506.61
2017-08-02T02:04:28.008Z,98500.83
2017-08-02T02:06:56.363Z,98511.02
2017-08-02T02:09:24.678Z,98511.08
2017-08-02T02:11:53.032Z,98514.95
2017-08-02T02:14:21.400Z,98518.81
2017-08-02T02:16:50.161Z,98522.39
2017-08-02T02:19:18.526Z,98518.86
2017-08-02T02:21:47.608Z,98517.61
2017-08-02T02:24:15.996Z,98512.36
2017-08-02T02:26:44.355Z,98506.85
2017-08-02T02:29:12.692Z,98515.03
2017-08-02T02:31:41.052Z,98505.13
2017-08-02T02:34:09.382Z,98511.86
2017-08-02T02:36:38.170Z,98507.69
2017-08-02T02:39:06.524Z,98504.61
2017-08-02T02:41:35.742Z,98506.94
2017-08-02T02:44:04.503Z,98504.19
2017-08-02T02:46:32.818Z,98503.17
2017-08-02T02:49:01.582Z,98498.73
2017-08-02T02:51:29.935Z,98506.30
2017-08-02T02:53:58.282Z,98508.03
2017-08-02T02:56:27.012Z,98509.44
2017-08-02T02:58:55.337Z,98508.23
2017-08-02T03:01:23.682Z,98516.87
2017-08-02T03:03:52.435Z,98519.04
2017-08-02T03:06:21.540Z,98509.35
2017-08-02T03:08:49.884Z,98513.77
2017-08-02T03:11:18.219Z,98507.06
2017-08-02T03:13:46.573Z,98510.31
2017-08-02T03:16:15.666Z,98506.26
2017-08-02T03:18:44.023Z,98517.31
2017-08-02T03:21:12.375Z,98517.25
2017-08-02T03:23:40.713Z,98521.45
2017-08-02T03:26:09.061Z,98523.91
2017-08-02T03:28:37.755Z,98527.42
2017-08-02T03:31:06.891Z,98532.49
2017-08-02T03:33:35.239Z,98536.53
2017-08-02T03:36:03.557Z,98536.46
2017-08-02T03:38:31.957Z,98542.73
2017-08-02T03:41:00.316Z,98538.50
2017-08-02T03:43:28.660Z,98545.92
2017-08-02T03:45:57.777Z,98545.42
2017-08-02T03:48:26.114Z,98545.91
2017-08-02T03:50:55.443Z,98553.70
2017-08-02T03:53:23.851Z,98558.68
2017-08-02T03:55:52.185Z,98555.23
2017-08-02T03:58:20.523Z,98556.14
2017-08-02T04:00:48.888Z,98562.65
2017-08-02T04:03:17.240Z,98566.08
2017-08-02T04:05:46.324Z,98563.60
2017-08-02T04:08:14.674Z,98566.31
2017-08-02T04:10:43.038Z,98567.09
2017-08-02T04:13:11.373Z,98572.22
2017-08-02T04:15:40.500Z,98577.09
2017-08-02T04:18:08.842Z,98581.48
2017-08-02T04:20:37.497Z,98587.17
2017-08-02T04:23:05.814Z,98584.33
2017-08-02T04:25:34.891Z,98594.19
2017-08-02T04:28:03.241Z,98598.42
2017-08-02T04:30:31.578Z,98590.36
2017-08-02T04:33:00.680Z,98593.68
2017-08-02T04:35:29.035Z,98599.31
2017-08-02T04:37:58.271Z,98596.16
2017-08-02T04:40:26.615Z,98597.65
2017-08-02T04:42:54.951Z,98603.45
2017-08-02T04:45:23.295Z,98599.08
2017-08-02T04:47:51.635Z,98603.34
2017-08-02T04:50:19.950Z,98607.01
2017-08-02T04:52:49.273Z,98603.05
2017-08-02T04:55:17.608Z,98605.00
2017-08-02T04:57:45.951Z,98608.06
2017-08-02T05:00:14.299Z,98609.58
2017-08-02T05:02:42.739Z,98613.52
2017-08-02T05:05:11.344Z,98614.09
2017-08-02T05:07:40.436Z,98615.66
2017-08-02T05:10:08.770Z,98613.11
2017-08-02T05:12:37.129Z,98608.67
2017-08-02T05:15:05.692Z,98601.38
2017-08-02T05:17:34.094Z,98603.92
2017-08-02T05:20:02.864Z,98606.73
2017-08-02T05:22:31.231Z,98610.50
2017-08-02T05:25:00.345Z,98613.69
2017-08-02T05:27:28.663Z,98626.20
2017-08-02T05:29:57.007Z,98621.80
2017-08-02T05:32:25.353Z,98622.98
2017-08-02T05:34:53.699Z,98627.05
2017-08-02T05:37:22.294Z,98625.05
2017-08-02T05:39:50.616Z,98624.61
2017-08-02T05:42:19.291Z,98622.16
2017-08-02T05:44:47.626Z,98629.52
2017-08-02T05:47:16.064Z,98634.53
2017-08-02T05:49:44.439Z,98633.52
2017-08-02T05:52:12.811Z,98628.03
2017-08-02T05:54:41.528Z,98622.57
2017-08-02T05:57:09.859Z,98623.95
2017-08-02T05:59:38.198Z,98627.52
2017-08-02T06:02:10.768Z,98633.01
2017-08-02T06:04:39.419Z,98636.73
2017-08-02T06:07:07.780Z,98625.31
2017-08-02T06:09:36.140Z,98633.50
2017-08-02T06:12:04.474Z,98641.88
2017-08-02T06:14:32.810Z,98640.98
2017-08-02T06:17:01.165Z,98637.83
2017-08-02T06:19:29.493Z,98640.89
2017-08-02T06:21:57.841Z,98639.25
2017-08-02T06:24:26.173Z,98638.89
2017-08-02T06:26:54.521Z,98637.34
2017-08-02T06:29:22.884Z,98636.97
2017-08-02T06:31:51.221Z,98640.95
2017-08-02T06:34:19.875Z,98638.66
2017-08-02T06:36:48.222Z,98632.97
2017-08-02T06:39:16.562Z,98635.84
2017-08-02T06:41:44.908Z,98633.85
2017-08-02T06:44:14.043Z,98630.94
2017-08-02T06:46:42.653Z,98627.78
2017-08-02T06:49:10.985Z,98627.87
2017-08-02T06:51:39.351Z,98624.45
2017-08-02T06:54:07.834Z,98628.63
2017-08-02T06:56:36.169Z,98638.64
2017-08-02T06:59:04.517Z,98635.45
2017-08-02T07:01:32.870Z,98640.05
2017-08-02T07:04:01.201Z,98640.19
2017-08-02T07:06:29.566Z,98641.62
2017-08-02T07:08:57.899Z,98642.30
2017-08-02T07:11:26.490Z,98638.05
2017-08-02T07:13:54.817Z,98640.42
2017-08-02T07:16:23.178Z,98639.64
2017-08-02T07:18:51.784Z,98633.25
2017-08-02T07:21:20.113Z,98629.78
2017-08-02T07:23:48.451Z,98635.95
2017-08-02T07:26:16.794Z,98628.81
2017-08-02T07:28:45.150Z,98633.14
2017-08-02T07:31:13.501Z,98641.89
2017-08-02T07:33:41.843Z,98643.73
2017-08-02T07:36:10.203Z,98654.48
2017-08-02T07:38:38.551Z,98653.16
2017-08-02T07:41:06.900Z,98657.87
2017-08-02T07:43:35.281Z,98654.50
2017-08-02T07:46:03.634Z,98651.63
2017-08-02T07:48:31.976Z,98653.23
2017-08-02T07:51:00.343Z,98652.28
2017-08-02T07:53:28.692Z,98644.29
2017-08-02T07:55:57.037Z,98639.98
2017-08-02T07:58:25.656Z,98637.33
2017-08-02T08:00:54.003Z,98639.67
2017-08-02T08:03:22.875Z,98635.20
2017-08-02T08:05:51.879Z,98636.84
2017-08-02T08:08:20.726Z,98641.19
2017-08-02T08:10:49.968Z,98636.34
2017-08-02T08:13:18.920Z,98636.91
2017-08-02T08:15:47.919Z,98631.50
2017-08-02T08:18:17.649Z,98632.25
2017-08-02T08:20:46.580Z,98630.96
2017-08-02T08:23:14.937Z,98635.19
2017-08-02T08:25:43.337Z,98633.59
2017-08-02T08:28:11.695Z,98632.81
2017-08-02T08:30:40.101Z,98637.53
2017-08-02T08:33:08.446Z,98634.23
2017-08-02T08:35:36.785Z,98635.88
2017-08-02T08:38:05.140Z,98634.84
2017-08-02T08:40:33.492Z,98633.80
2017-08-02T08:43:01.852Z,98643.58
2017-08-02T08:45:30.207Z,98634.83
2017-08-02T08:47:58.556Z,98635.00
2017-08-02T08:50:26.894Z,98635.50
2017-08-02T08:52:55.267Z,98630.05
2017-08-02T08:55:23.882Z,98618.52
2017-08-02T08:57:52.217Z,98625.41
2017-08-02T09:00:20.557Z,98629.05
2017-08-02T09:02:48.895Z,98629.39
2017-08-02T09:05:17.243Z,98624.56
2017-08-02T09:07:45.889Z,98622.52
2017-08-02T09:10:14.240Z,98629.98
2017-08-02T09:12:42.567Z,98629.70
2017-08-02T09:15:10.908Z,98631.56
2017-08-02T09:17:39.252Z,98626.41
2017-08-02T09:20:07.583Z,98631.41
2017-08-02T09:22:35.952Z,98631.19
2017-08-02T09:25:04.275Z,98629.23
2017-08-02T09:27:32.633Z,98633.08
2017-08-02T09:30:00.969Z,98636.19
2017-08-02T09:32:29.317Z,98633.64
2017-08-02T09:34:57.687Z,98629.96
2017-08-02T09:37:26.027Z,98614.67
2017-08-02T09:39:54.382Z,98625.38
2017-08-02T09:42:22.705Z,98623.84
2017-08-02T09:44:51.348Z,98615.88
2017-08-02T09:47:19.677Z,98615.36
2017-08-02T09:49:48.017Z,98620.34
2017-08-02T09:52:16.375Z,98619.08
2017-08-02T09:54:44.704Z,98618.72
2017-08-02T09:57:13.318Z,98619.16
2017-08-02T09:59:41.647Z,98615.02
2017-08-02T10:02:09.965Z,98618.63
2017-08-02T10:04:38.322Z,98617.48
2017-08-02T10:07:06.656Z,98606.78
2017-08-02T10:09:35.297Z,98610.27
2017-08-02T10:12:03.666Z,98614.30
2017-08-02T10:14:31.988Z,98620.45
2017-08-02T10:17:01.288Z,98615.00
2017-08-02T10:19:29.699Z,98615.81
2017-08-02T10:21:58.029Z,98618.12
2017-08-02T10:24:26.385Z,98625.90
2017-08-02T10:26:54.712Z,98626.55
2017-08-02T10:29:23.051Z,98626.83
2017-08-02T10:31:51.384Z,98623.22
2017-08-02T10:34:19.737Z,98622.41
2017-08-02T10:36:48.076Z,98625.91
2017-08-02T10:39:16.395Z,98626.16
2017-08-02T10:41:45.541Z,98624.81
2017-08-02T10:44:13.867Z,98624.13
2017-08-02T10:46:42.268Z,98627.89
2017-08-02T10:49:10.611Z,98622.28
2017-08-02T10:51:38.940Z,98622.81
2017-08-02T10:54:07.301Z,98623.51
2017-08-02T10:56:35.641Z,98617.48
2017-08-02T10:59:04.018Z,98624.84
2017-08-02T11:01:32.369Z,98615.20
2017-08-02T11:04:00.724Z,98618.41
2017-08-02T11:06:29.073Z,98620.03
2017-08-02T11:08:57.429Z,98616.28
2017-08-02T11:11:25.799Z,98610.92
2017-08-02T11:13:54.163Z,98619.13
2017-08-02T11:16:22.489Z,98612.55
2017-08-02T11:18:50.862Z,98611.86
2017-08-02T11:21:19.220Z,98606.92
2017-08-02T11:23:47.553Z,98614.83
2017-08-02T11:26:15.885Z,98610.25
2017-08-02T11:28:44.224Z,98610.64
2017-08-02T11:31:12.562Z,98609.20
2017-08-02T11:33:40.891Z,98611.98
2017-08-02T11:36:09.204Z,98608.12
2017-08-02T11:38:37.559Z,98610.51
2017-08-02T11:41:05.879Z,98597.79
2017-08-02T11:43:34.235Z,98607.02
2017-08-02T11:46:02.541Z,98604.05
2017-08-02T11:48:30.914Z,98606.44
2017-08-02T11:50:59.275Z,98602.14
2017-08-02T11:53:27.587Z,98589.66
2017-08-02T11:55:55.928Z,98584.05
2017-08-02T11:58:25.149Z,98590.70
2017-08-02T12:00:53.502Z,98590.30
2017-08-02T12:03:21.838Z,98585.96
2017-08-02T12:05:50.212Z,98586.62
2017-08-02T12:08:18.833Z,98583.69
2017-08-02T12:10:47.153Z,98579.27
2017-08-02T12:13:15.491Z,98576.09
2017-08-02T12:15:43.837Z,98570.92
2017-08-02T12:18:12.173Z,98567.80
2017-08-02T12:20:40.781Z,98565.67
2017-08-02T12:23:09.136Z,98568.34
2017-08-02T12:25:37.456Z,98565.09
2017-08-02T12:28:05.888Z,98560.41
2017-08-02T12:30:34.327Z,98566.02
2017-08-02T12:33:02.691Z,98563.45
2017-08-02T12:35:31.026Z,98567.86
2017-08-02T12:37:59.413Z,98563.03
2017-08-02T12:40:27.798Z,98561.41
2017-08-02T12:42:56.149Z,98567.02
2017-08-02T12:45:24.517Z,98565.61
2017-08-02T12:47:52.855Z,98556.36
2017-08-02T12:50:21.217Z,98559.06
2017-08-02T12:52:49.577Z,98560.51
2017-08-02T12:55:18.629Z,98556.78
2017-08-02T12:57:47.324Z,98554.48
2017-08-02T13:00:15.643Z,98551.91
2017-08-02T13:02:43.966Z,98553.66
2017-08-02T13:05:12.330Z,98548.69
2017-08-02T13:07:40.674Z,98548.92
2017-08-02T13:10:09.031Z,98543.42
2017-08-02T13:12:37.367Z,98539.96
2017-08-02T13:15:05.728Z,98541.45
2017-08-02T13:17:34.088Z,98536.64
2017-08-02T13:20:02.436Z,98538.39
2017-08-02T13:22:31.034Z,98531.95
2017-08-02T13:24:59.357Z,98520.91
2017-08-02T13:27:27.697Z,98525.34
2017-08-02T13:29:56.111Z,98525.09
2017-08-02T13:32:24.448Z,98522.30
2017-08-02T13:34:53.099Z,98523.21
2017-08-02T13:37:21.437Z,98522.37
2017-08-02T13:39:49.784Z,98519.62
2017-08-02T13:42:18.144Z,98519.86
2017-08-02T13:44:47.259Z,98513.20
2017-08-02T13:47:15.652Z,98511.92
2017-08-02T13:49:43.980Z,98506.77
2017-08-02T13:52:12.345Z,98508.47
2017-08-02T13:54:40.710Z,98502.48
2017-08-02T13:57:09.052Z,98501.97
2017-08-02T13:59:38.426Z,98492.63
2017-08-02T14:02:06.760Z,98491.58
2017-08-02T14:04:35.100Z,98488.72
2017-08-02T14:07:04.205Z,98483.55
2017-08-02T14:09:33.712Z,98478.59
2017-08-02T14:12:03.424Z,98483.04
2017-08-02T14:14:31.777Z,98479.64
2017-08-02T14:17:00.150Z,98477.03
2017-08-02T14:19:28.506Z,98475.15
2017-08-02T14:21:56.830Z,98468.90
2017-08-02T14:24:25.949Z,98466.83
2017-08-02T14:26:54.280Z,98469.44
2017-08-02T14:29:22.619Z,98469.00
2017-08-02T14:31:50.956Z,98471.02
2017-08-02T14:34:19.331Z,98471.52
2017-08-02T14:36:47.690Z,98466.43
2017-08-02T14:39:16.444Z,98455.95
2017-08-02T14:41:44.764Z,98458.23
2017-08-02T14:44:13.138Z,98445.16
2017-08-02T14:46:41.921Z,98447.10
2017-08-02T14:49:10.259Z,98435.00
2017-08-02T14:51:39.057Z,98428.40
2017-08-02T14:54:07.395Z,98428.95
2017-08-02T14:56:35.762Z,98425.14
2017-08-02T14:59:04.112Z,98427.20
2017-08-02T15:01:32.453Z,98421.35
2017-08-02T15:04:01.971Z,98419.97
2017-08-02T15:06:30.301Z,98419.84
2017-08-02T15:08:58.615Z,98418.20
2017-08-02T15:11:26.998Z,98409.80
2017-08-02T15:13:55.344Z,98403.33
2017-08-02T15:16:23.724Z,98394.38
2017-08-02T15:18:52.090Z,98399.94
2017-08-02T15:21:20.413Z,98391.80
2017-08-02T15:23:49.555Z,98394.31
2017-08-02T15:26:17.881Z,98394.42
2017-08-02T15:28:46.248Z,98392.84
2017-08-02T15:31:14.604Z,98389.58
2017-08-02T15:33:42.955Z,98386.02
2017-08-02T15:36:11.359Z,98383.69
2017-08-02T15:38:39.713Z,98376.89
2017-08-02T15:41:08.060Z,98375.00
2017-08-02T15:43:36.779Z,98370.80
2017-08-02T15:46:05.150Z,98363.59
2017-08-02T15:48:33.488Z,98360.48
2017-08-02T15:51:01.876Z,98359.22
2017-08-02T15:53:30.591Z,98355.68
2017-08-02T15:56:01.044Z,98357.40
2017-08-02T15:58:29.388Z,98363.50
2017-08-02T16:00:57.715Z,98362.77
2017-08-02T16:03:26.063Z,98354.95
2017-08-02T16:05:54.415Z,98352.80
2017-08-02T16:08:23.726Z,98362.20
2017-08-02T16:10:52.062Z,98353.43
2017-08-02T16:13:20.387Z,98357.23
2017-08-02T16:15:48.745Z,98352.21
2017-08-02T16:18:17.067Z,98348.77
2017-08-02T16:20:45.683Z,98348.80
2017-08-02T16:23:14.035Z,98346.64
2017-08-02T16:25:42.396Z,98344.20
2017-08-02T16:28:10.748Z,98340.05
2017-08-02T16:30:39.097Z,98343.91
2017-08-02T16:33:07.721Z,98351.36
2017-08-02T16:35:36.077Z,98345.86
2017-08-02T16:38:04.395Z,98347.50
2017-08-02T16:40:32.763Z,98336.73
2017-08-02T16:43:01.098Z,98335.83
2017-08-02T16:45:29.769Z,98339.45
2017-08-02T16:47:58.104Z,98339.55
2017-08-02T16:50:26.455Z,98341.50
2017-08-02T16:52:54.824Z,98335.22
2017-08-02T16:55:23.156Z,98340.75
2017-08-02T16:57:51.509Z,98343.28
2017-08-02T17:00:19.825Z,98333.80
2017-08-02T17:02:48.245Z,98323.64
2017-08-02T17:05:16.592Z,98327.27
2017-08-02T17:07:44.940Z,98321.72
2017-08-02T17:10:13.283Z,98315.96
2017-08-02T17:12:41.656Z,98307.89
2017-08-02T17:15:09.998Z,98305.98
2017-08-02T17:17:38.365Z,98309.86
2017-08-02T17:20:06.711Z,98305.94
2017-08-02T17:22:35.042Z,98309.97
2017-08-02T17:25:03.404Z,98311.75
2017-08-02T17:27:31.819Z,98300.39
2017-08-02T17:30:00.457Z,98308.99
2017-08-02T17:32:28.814Z,98310.48
2017-08-02T17:34:57.192Z,98309.84
2017-08-02T17:37:25.559Z,98299.50
2017-08-02T17:39:53.910Z,98304.20
2017-08-02T17:42:22.525Z,98299.98
2017-08-02T17:44:50.909Z,98302.45
2017-08-02T17:47:19.270Z,98310.62
2017-08-02T17:49:47.634Z,98310.20
2017-08-02T17:52:15.973Z,98304.89
2017-08-02T17:54:44.344Z,98306.63
2017-08-02T17:57:12.691Z,98305.45
2017-08-02T17:59:41.028Z,98306.88
2017-08-02T18:02:09.371Z,98309.45
2017-08-02T18:04:37.700Z,98308.26
2017-08-02T18:07:06.066Z,98314.02
2017-08-02T18:09:34.396Z,98312.70
2017-08-02T18:12:02.991Z,98308.92
2017-08-02T18:14:31.317Z,98306.41
2017-08-02T18:16:59.692Z,98312.67
2017-08-02T18:19:28.570Z,98310.84
2017-08-02T18:21:56.896Z,98319.41
2017-08-02T18:24:25.268Z,98318.06
2017-08-02T18:26:53.653Z,98317.66
2017-08-02T18:29:21.999Z,98308.16
2017-08-02T18:31:50.376Z,98311.92
2017-08-02T18:34:18.724Z,98307.38
2017-08-02T18:36:47.355Z,98305.62
2017-08-02T18:39:15.693Z,98307.48
2017-08-02T18:41:44.040Z,98310.95
2017-08-02T18:44:12.646Z,98311.63
2017-08-02T18:46:40.991Z,98311.99
2017-08-02T18:49:09.342Z,98317.89
2017-08-02T18:51:37.714Z,98318.03
2017-08-02T18:54:06.104Z,98315.60
2017-08-02T18:56:34.766Z,98322.77
2017-08-02T18:59:03.118Z,98318.70
2017-08-02T19:01:31.462Z,98312.84
2017-08-02T19:03:59.841Z,98321.70
2017-08-02T19:06:28.172Z,98323.36
2017-08-02T19:08:56.563Z,98308.92
2017-08-02T19:11:24.920Z,98318.88
2017-08-02T19:13:53.271Z,98321.30
2017-08-02T19:16:21.631Z,98320.42
2017-08-02T19:18:50.001Z,98324.66
2017-08-02T19:21:18.372Z,98321.17
2017-08-02T19:23:46.715Z,98324.20
2017-08-02T19:26:15.099Z,98317.95
2017-08-02T19:28:43.476Z,98322.88
2017-08-02T19:31:11.811Z,98325.25
2017-08-02T19:33:40.419Z,98322.78
2017-08-02T19:36:08.751Z,98330.94
2017-08-02T19:38:37.092Z,98333.48
2017-08-02T19:41:05.508Z,98330.42
2017-08-02T19:43:33.843Z,98325.52
2017-08-02T19:46:02.466Z,98336.28
2017-08-02T19:48:30.811Z,98336.16
2017-08-02T19:50:59.165Z,98342.88
2017-08-02T19:53:27.541Z,98344.15
2017-08-02T19:55:55.883Z,98336.39
2017-08-02T19:58:24.250Z,98333.70
2017-08-02T20:00:52.582Z,98330.89
2017-08-02T20:03:20.945Z,98323.50
2017-08-02T20:05:49.385Z,98327.17
2017-08-02T20:08:17.750Z,98324.94
2017-08-02T20:10:46.117Z,98325.78
2017-08-02T20:13:14.455Z,98318.57
2017-08-02T20:15:42.822Z,98318.55
2017-08-02T20:18:11.479Z,98321.00
2017-08-02T20:20:39.823Z,98319.30
2017-08-02T20:23:08.159Z,98315.84
2017-08-02T20:25:36.822Z,98313.44
2017-08-02T20:28:05.178Z,98313.25
2017-08-02T20:30:33.509Z,98312.75
2017-08-02T20:33:01.869Z,98316.68
2017-08-02T20:35:30.218Z,98318.41
2017-08-02T20:37:58.571Z,98317.19
2017-08-02T20:40:26.942Z,98305.91
2017-08-02T20:42:55.418Z,98309.47
2017-08-02T20:45:23.814Z,98312.23
2017-08-02T20:47:52.473Z,98316.94
2017-08-02T20:50:20.793Z,98320.22
2017-08-02T20:52:49.139Z,98319.49
2017-08-02T20:55:17.487Z,98319.84
2017-08-02T20:57:45.833Z,98320.42
2017-08-02T21:00:14.204Z,98311.58
2017-08-02T21:02:42.544Z,98313.88
2017-08-02T21:05:10.873Z,98316.67
2017-08-02T21:07:39.244Z,98311.10
2017-08-02T21:10:07.608Z,98311.96
2017-08-02T21:12:35.983Z,98313.06
2017-08-02T21:15:04.598Z,98308.15
2017-08-02T21:17:32.933Z,98318.13
2017-08-02T21:20:01.256Z,98315.16
2017-08-02T21:22:29.614Z,98318.67
2017-08-02T21:24:57.963Z,98321.28
2017-08-02T21:27:26.328Z,98320.48
2017-08-02T21:29:54.682Z,98320.46
2017-08-02T21:32:23.003Z,98316.10
2017-08-02T21:34:51.359Z,98315.58
2017-08-02T21:37:19.717Z,98313.47
2017-08-02T21:39:48.076Z,98306.03
2017-08-02T21:42:16.405Z,98308.73
2017-08-02T21:44:44.752Z,98305.22
2017-08-02T21:47:13.139Z,98301.26
2017-08-02T21:49:41.510Z,98304.47
2017-08-02T21:52:09.917Z,98311.55
2017-08-02T21:54:38.283Z,98312.72
2017-08-02T21:57:06.605Z,98310.83
2017-08-02T21:59:34.956Z,98310.63
2017-08-02T22:02:03.316Z,98309.09
2017-08-02T22:04:31.663Z,98309.06
2017-08-02T22:07:00.033Z,98301.75
2017-08-02T22:09:28.375Z,98307.34
2017-08-02T22:11:56.743Z,98303.79
2017-08-02T22:14:25.112Z,98297.74
2017-08-02T22:16:53.440Z,98310.06
2017-08-02T22:19:21.785Z,98305.30
2017-08-02T22:21:50.112Z,98299.83
2017-08-02T22:24:18.714Z,98285.91
2017-08-02T22:26:47.055Z,98294.29
2017-08-02T22:29:15.392Z,98285.10
2017-08-02T22:31:43.735Z,98284.50
2017-08-02T22:34:12.070Z,98285.77
2017-08-02T22:36:40.684Z,98284.03
2017-08-02T22:39:09.025Z,98286.06
2017-08-02T22:41:37.393Z,98278.89
2017-08-02T22:44:05.791Z,98274.78
2017-08-02T22:46:34.130Z,98272.66
2017-08-02T22:49:02.742Z,98269.97
2017-08-02T22:51:31.089Z,98262.48
2017-08-02T22:53:59.413Z,98269.96
2017-08-02T22:56:27.757Z,98267.86
2017-08-02T22:58:56.084Z,98278.02
2017-08-02T23:01:24.421Z,98280.89
2017-08-02T23:03:52.768Z,98278.52
2017-08-02T23:06:21.103Z,98278.31
2017-08-02T23:08:49.470Z,98280.66
2017-08-02T23:11:17.839Z,98276.70
2017-08-02T23:13:46.206Z,98275.59
2017-08-02T23:16:14.595Z,98273.28
2017-08-02T23:18:42.950Z,98269.35
2017-08-02T23:21:11.389Z,98266.81
2017-08-02T23:23:39.743Z,98267.89
2017-08-02T23:26:08.390Z,98265.09
2017-08-02T23:28:36.721Z,98261.58
2017-08-02T23:31:05.056Z,98262.87
2017-08-02T23:33:33.417Z,98260.25
2017-08-02T23:36:02.335Z,98265.01
2017-08-02T23:38:30.696Z,98260.08
2017-08-02T23:40:59.033Z,98255.97
2017-08-02T23:43:27.374Z,98251.55
2017-08-02T23:45:55.732Z,98243.56
2017-08-02T23:48:24.060Z,98242.48
2017-08-02T23:50:52.676Z,98237.66
2017-08-02T23:53:21.057Z,98233.34
2017-08-02T23:55:49.388Z,98232.11
2017-08-02T23:58:17.748Z,98227.61
